Terminal Aerodrome Forecast
Issued by NWS Mt. Holly, NJ

Home | Current Version | Previous Version | Text Only | Print | Product List | Glossary On
Versions: 1 2 3 4 5 6 7 8 9 10 11 12 13 14 15 16 17 18 19 20 21 22 23 24 25 26
000
FTUS41 KPHI 061727
TAFILG
TAF
KILG 061727Z 0618/0718 04012G25KT 6SM -RA BR SCT012 OVC025
      TEMPO 0618/0622 4SM -RA BR BKN008 OVC012
     FM070000 05008KT 5SM -DZ BR OVC009
     FM070600 05008KT 2SM -DZ BR OVC004
     FM071700 26008KT P6SM BKN020=

USA.gov is the U.S. government's official web portal to all federal, state and local government web resources and services.